Time;durP1;ratioP1;P1;durP2;ratioP2;P2;SDS_P1;SDS_P2;PMS_P1;PMS_P2;Temp;Humidity;BMP_temperature;BMP_pressure;BME280_temperature;BME280_humidity;BME280_pressure;Samples;Min_cycle;Max_cycle;Signal;HPM_P1;HPM_P2
2022/03/28 04:36:06;;;;;;;15.30;12.25;;;;;;;3.53;60.82;101686.38;5050287;23;20544;-23
2022/03/28 04:38:31;;;;;;;18.40;12.63;;;;;;;3.51;60.69;101682.81;5087512;28;20138;-19
2022/03/28 04:40:57;;;;;;;16.52;13.13;;;;;;;3.50;60.54;101688.88;5096119;28;20118;-25
2022/03/28 04:43:22;;;;;;;13.88;11.40;;;;;;;3.49;60.86;101693.19;5092615;28;20283;-19
2022/03/28 04:45:48;;;;;;;17.85;13.20;;;;;;;3.44;60.83;101685.19;5094031;28;20054;-23
2022/03/28 04:48:14;;;;;;;18.13;12.55;;;;;;;3.45;60.64;101683.47;5091749;28;20027;-23
2022/03/28 04:50:39;;;;;;;18.05;12.95;;;;;;;3.42;60.84;101685.97;5092289;28;20119;-32
2022/03/28 04:53:05;;;;;;;14.70;13.10;;;;;;;3.40;60.53;101680.69;5073326;28;20020;-23
2022/03/28 04:55:31;;;;;;;17.17;12.63;;;;;;;3.38;60.64;101679.78;5092096;28;20287;-21
2022/03/28 04:57:56;;;;;;;18.27;12.35;;;;;;;3.36;60.85;101676.19;5090053;28;20024;-23
2022/03/28 05:00:22;;;;;;;16.02;12.90;;;;;;;3.34;60.46;101672.66;5094527;28;20397;-23
2022/03/28 05:02:48;;;;;;;17.95;12.85;;;;;;;3.33;61.08;101678.69;5058807;28;20119;-21
2022/03/28 05:05:13;;;;;;;19.58;13.32;;;;;;;3.31;60.46;101677.75;5094183;28;20042;-24
2022/03/28 05:07:39;;;;;;;16.35;12.50;;;;;;;3.31;60.83;101682.97;5092330;28;20107;-22
2022/03/28 05:10:06;;;;;;;17.42;12.82;;;;;;;3.29;60.55;101682.03;5089997;28;20024;-22
2022/03/28 05:12:32;;;;;;;19.42;12.98;;;;;;;3.24;60.80;101674.06;5090756;28;20027;-24
2022/03/28 05:14:57;;;;;;;19.05;13.90;;;;;;;3.24;61.03;101671.44;5094298;28;20032;-21
2022/03/28 05:17:28;;;;;;;18.15;12.45;;;;;;;3.21;61.05;101674.78;5096849;28;20028;-22
2022/03/28 05:19:54;;;;;;;17.25;12.98;;;;;;;3.22;61.02;101673.09;5095373;28;20401;-21
2022/03/28 05:22:20;;;;;;;17.00;12.18;;;;;;;3.20;60.92;101674.72;5090023;28;20026;-21
2022/03/28 05:24:46;;;;;;;16.95;12.30;;;;;;;3.17;60.97;101683.34;5091702;28;20035;-21
2022/03/28 05:27:12;;;;;;;17.52;12.43;;;;;;;3.16;60.95;101681.56;5091345;28;20055;-22
2022/03/28 05:29:37;;;;;;;19.95;14.02;;;;;;;3.15;60.86;101677.19;5091968;28;20128;-23
2022/03/28 05:32:04;;;;;;;17.92;12.93;;;;;;;3.15;61.15;101676.28;5091661;28;20045;-24
2022/03/28 05:34:30;;;;;;;17.08;12.75;;;;;;;3.11;61.22;101671.78;5089406;28;20451;-22
2022/03/28 05:37:00;;;;;;;18.75;13.25;;;;;;;3.10;61.50;101678.72;5095817;28;20027;-21
2022/03/28 05:39:26;;;;;;;19.10;13.38;;;;;;;3.08;61.35;101676.06;5092086;28;20109;-22
2022/03/28 05:41:52;;;;;;;19.98;13.73;;;;;;;3.09;61.03;101666.53;5091801;28;20031;-21
2022/03/28 05:44:21;;;;;;;17.10;12.50;;;;;;;3.07;61.40;101663.84;5072858;28;20035;-27
2022/03/28 05:46:48;;;;;;;16.27;12.65;;;;;;;3.09;61.44;101671.75;5068530;28;20093;-22
2022/03/28 05:49:14;;;;;;;17.40;12.82;;;;;;;3.06;61.39;101655.97;5094884;28;20022;-23
2022/03/28 05:51:40;;;;;;;18.00;13.57;;;;;;;3.08;61.54;101662.16;5094130;28;20055;-22
2022/03/28 05:54:05;;;;;;;19.98;12.52;;;;;;;3.08;61.50;101659.53;5092564;28;20076;-25
2022/03/28 05:56:31;;;;;;;19.00;12.90;;;;;;;3.08;61.60;101659.53;5072087;28;20032;-21
2022/03/28 05:58:57;;;;;;;20.90;12.85;;;;;;;3.08;61.59;101657.81;5074476;28;20024;-23
2022/03/28 06:01:22;;;;;;;17.92;12.35;;;;;;;3.08;61.57;101656.94;5095551;28;20020;-22
2022/03/28 06:03:48;;;;;;;21.35;13.60;;;;;;;3.09;61.51;101648.28;5090118;28;20028;-25
2022/03/28 06:06:13;;;;;;;17.45;12.18;;;;;;;3.11;61.69;101659.66;5091690;28;20032;-22
2022/03/28 06:08:39;;;;;;;16.67;13.40;;;;;;;3.11;61.83;101654.44;5074461;28;20020;-21
2022/03/28 06:11:05;;;;;;;17.95;12.45;;;;;;;3.14;61.55;101659.75;5091554;28;20023;-25
2022/03/28 06:13:31;;;;;;;17.40;13.00;;;;;;;3.15;61.91;101656.34;5091467;28;20646;-23
2022/03/28 06:15:57;;;;;;;17.65;12.30;;;;;;;3.17;61.86;101652.06;5091553;28;20036;-22
2022/03/28 06:18:23;;;;;;;15.50;11.98;;;;;;;3.18;61.81;101651.25;5090628;28;20020;-23
2022/03/28 06:20:48;;;;;;;18.67;12.65;;;;;;;3.18;62.39;101646.03;5091722;28;20421;-24
2022/03/28 06:23:14;;;;;;;21.98;13.10;;;;;;;3.21;61.83;101640.91;5091573;28;20608;-21
2022/03/28 06:25:40;;;;;;;15.07;12.18;;;;;;;3.24;62.02;101639.25;5094412;28;20040;-24
2022/03/28 06:28:06;;;;;;;18.65;13.63;;;;;;;3.25;62.12;101641.91;5091225;28;20027;-25
2022/03/28 06:30:32;;;;;;;20.27;12.57;;;;;;;3.30;61.73;101634.28;5089350;28;20032;-22
2022/03/28 06:32:57;;;;;;;18.13;12.88;;;;;;;3.31;61.60;101634.31;5090589;28;20351;-25
2022/03/28 06:35:23;;;;;;;19.80;12.90;;;;;;;3.35;61.58;101632.72;5090075;28;20590;-21
2022/03/28 06:37:52;;;;;;;14.60;12.27;;;;;;;3.39;61.86;101629.38;5091861;28;20034;-28
2022/03/28 06:40:17;;;;;;;19.10;12.50;;;;;;;3.42;62.17;101620.78;5091101;28;20107;-24
2022/03/28 06:42:43;;;;;;;18.27;12.82;;;;;;;3.45;61.63;101623.50;5090786;28;20169;-21
2022/03/28 06:45:10;;;;;;;20.33;12.02;;;;;;;3.51;62.17;101615.00;5089980;28;20080;-23
2022/03/28 06:47:36;;;;;;;20.95;13.20;;;;;;;3.54;61.74;101618.59;5088420;28;20381;-21
2022/03/28 06:50:02;;;;;;;19.15;14.25;;;;;;;3.59;61.83;101610.94;5093433;28;20035;-24
2022/03/28 06:52:27;;;;;;;18.25;13.52;;;;;;;3.64;62.12;101609.41;5087516;28;20035;-21
2022/03/28 06:54:53;;;;;;;19.08;12.40;;;;;;;3.69;61.93;101613.03;5088377;28;20020;-21
2022/03/28 06:57:19;;;;;;;19.60;13.85;;;;;;;3.74;61.73;101612.31;5091291;28;20020;-23
2022/03/28 06:59:44;;;;;;;17.90;13.30;;;;;;;3.80;61.90;101609.91;5090458;28;20169;-26
2022/03/28 07:02:10;;;;;;;19.60;12.43;;;;;;;3.87;62.10;101604.03;5089936;28;20035;-23
2022/03/28 07:04:35;;;;;;;20.45;14.38;;;;;;;3.95;62.56;101605.22;5089226;28;20026;-21
2022/03/28 07:07:01;;;;;;;22.92;14.18;;;;;;;4.03;62.12;101599.34;5087463;28;20078;-21
2022/03/28 07:09:26;;;;;;;19.67;15.02;;;;;;;4.12;62.18;101599.66;5069300;28;20035;-25
2022/03/28 07:11:52;;;;;;;19.70;14.27;;;;;;;4.20;62.68;101600.78;5091190;28;20279;-21
2022/03/28 07:14:17;;;;;;;20.20;14.95;;;;;;;4.28;62.65;101598.41;5089369;28;20077;-21
2022/03/28 07:16:43;;;;;;;22.15;14.63;;;;;;;4.36;62.52;101591.72;5088828;28;20047;-22
2022/03/28 07:19:09;;;;;;;23.17;15.45;;;;;;;4.48;63.08;101588.59;5090774;28;20020;-23
2022/03/28 07:21:35;;;;;;;19.63;15.20;;;;;;;4.56;63.11;101580.97;5090326;28;20016;-24
2022/03/28 07:24:00;;;;;;;21.13;15.40;;;;;;;4.67;63.32;101581.28;5089803;28;20477;-21
2022/03/28 07:26:26;;;;;;;22.80;15.35;;;;;;;4.78;63.98;101579.03;5070967;28;20028;-24
2022/03/28 07:28:51;;;;;;;24.85;16.17;;;;;;;4.88;63.72;101574.94;5089232;28;20034;-22
2022/03/28 07:31:18;;;;;;;23.13;16.50;;;;;;;4.99;63.35;101573.53;5088294;28;20024;-21
2022/03/28 07:33:43;;;;;;;25.55;17.17;;;;;;;5.10;63.61;101572.97;5092161;28;20016;-22
2022/03/28 07:36:10;;;;;;;29.13;17.83;;;;;;;5.25;64.45;101569.88;5089696;28;20020;-23
2022/03/28 07:38:35;;;;;;;27.27;17.67;;;;;;;5.37;65.44;101569.31;5072621;28;20027;-21
2022/03/28 07:41:02;;;;;;;28.92;18.55;;;;;;;5.50;64.01;101570.50;5087962;28;20074;-21
2022/03/28 07:43:28;;;;;;;25.67;16.23;;;;;;;5.62;63.37;101556.88;5088778;28;20012;-21
2022/03/28 07:45:54;;;;;;;26.40;17.55;;;;;;;5.73;62.26;101558.03;5088868;28;20039;-24
2022/03/28 07:48:21;;;;;;;31.20;19.02;;;;;;;5.89;63.83;101551.44;5072218;28;20112;-25
2022/03/28 07:50:47;;;;;;;32.88;22.02;;;;;;;6.05;64.49;101548.34;5088321;28;20073;-21
2022/03/28 07:53:14;;;;;;;35.30;20.17;;;;;;;6.19;64.26;101538.16;5091446;28;20024;-21
2022/03/28 07:55:40;;;;;;;32.17;21.52;;;;;;;6.34;64.66;101540.28;5070786;28;20036;-31
2022/03/28 07:58:07;;;;;;;32.97;20.77;;;;;;;6.51;65.87;101525.78;5086196;28;20149;-21
2022/03/28 08:00:33;;;;;;;29.85;20.58;;;;;;;6.66;65.00;101525.25;5089010;28;20038;-21
2022/03/28 08:03:00;;;;;;;35.47;20.23;;;;;;;6.81;66.49;101521.19;5089252;28;20103;-22
2022/03/28 08:05:26;;;;;;;30.92;20.25;;;;;;;6.98;65.87;101523.22;5092149;28;20026;-21
2022/03/28 08:07:53;;;;;;;35.03;22.55;;;;;;;7.13;65.99;101520.00;5090084;28;20070;-22
2022/03/28 08:10:20;;;;;;;32.17;22.30;;;;;;;7.30;66.18;101515.97;5072223;28;20115;-23
2022/03/28 08:12:46;;;;;;;32.05;20.55;;;;;;;7.46;64.78;101504.88;5093148;28;20456;-22
2022/03/28 08:15:13;;;;;;;33.55;21.67;;;;;;;7.64;64.66;101509.53;5093785;28;20026;-23
2022/03/28 08:17:39;;;;;;;30.25;21.67;;;;;;;7.81;65.66;101505.44;5089684;28;20032;-21
2022/03/28 08:20:06;;;;;;;32.22;21.65;;;;;;;7.97;66.21;101503.03;5078369;28;20023;-21
2022/03/28 08:22:33;;;;;;;34.92;22.77;;;;;;;8.16;65.68;101503.31;5089523;28;20023;-22
2022/03/28 08:24:58;;;;;;;32.13;21.88;;;;;;;8.33;65.29;101501.81;5090743;28;20032;-21
2022/03/28 08:27:24;;;;;;;32.30;22.30;;;;;;;8.50;64.33;101492.41;5097624;28;20053;-21
2022/03/28 08:29:49;;;;;;;35.63;23.50;;;;;;;8.70;67.38;101490.91;5093874;28;20034;-22
2022/03/28 08:32:15;;;;;;;38.58;24.55;;;;;;;8.89;67.32;101492.88;5093792;28;20020;-19
2022/03/28 08:34:42;;;;;;;36.75;22.52;;;;;;;9.08;67.28;101491.31;5097801;28;20077;-21
2022/03/28 08:37:09;;;;;;;34.33;23.65;;;;;;;9.28;68.55;101494.16;5089854;28;20036;-20
2022/03/28 08:39:35;;;;;;;36.10;23.00;;;;;;;9.46;68.23;101488.16;5092535;28;20016;-20
2022/03/28 08:42:00;;;;;;;37.72;22.42;;;;;;;9.67;68.38;101488.34;5094982;28;20050;-21
2022/03/28 08:44:27;;;;;;;35.10;23.67;;;;;;;9.87;69.47;101481.44;5092713;28;20089;-20
2022/03/28 08:46:55;;;;;;;35.00;23.70;;;;;;;10.07;69.03;101496.50;5092836;28;20063;-23
2022/03/28 08:49:20;;;;;;;34.72;23.33;;;;;;;10.26;67.58;101492.25;5088839;28;20059;-21
2022/03/28 08:51:46;;;;;;;37.90;25.35;;;;;;;10.43;68.25;101488.78;5096162;28;20068;-24
2022/03/28 08:54:13;;;;;;;36.22;23.52;;;;;;;10.62;68.61;101492.44;5091486;28;20024;-20
2022/03/28 08:56:39;;;;;;;37.30;24.73;;;;;;;10.81;68.89;101488.97;5091243;28;20035;-24
2022/03/28 08:59:05;;;;;;;35.35;24.35;;;;;;;10.96;67.29;101480.19;5073527;28;20027;-22
2022/03/28 09:01:31;;;;;;;34.85;24.73;;;;;;;11.10;66.15;101474.97;5092427;28;20493;-21
2022/03/28 09:04:06;;;;;;;39.50;24.00;;;;;;;11.33;68.09;101474.13;5075220;28;20031;-24
2022/03/28 09:06:42;;;;;;;36.03;24.60;;;;;;;11.52;68.15;101467.06;5091121;28;20016;-23
2022/03/28 09:09:21;;;;;;;33.47;23.67;;;;;;;11.73;67.39;101467.91;5078065;28;20024;-20
2022/03/28 09:11:52;;;;;;;34.00;22.88;;;;;;;11.93;68.14;101473.19;5094021;28;20115;-20
2022/03/28 09:14:34;;;;;;;35.78;22.15;;;;;;;12.13;68.68;101467.88;5091779;28;20065;-23
2022/03/28 09:17:05;;;;;;;32.30;23.48;;;;;;;12.31;67.92;101464.28;5090792;28;20066;-26
2022/03/28 09:19:52;;;;;;;;;;;;;;;12.48;68.01;101460.72;5073080;28;20028;-20
2022/03/28 09:22:31;;;;;;;32.00;20.83;;;;;;;12.64;66.81;101460.66;5089934;28;19914;-24
2022/03/28 09:24:58;;;;;;;37.45;22.17;;;;;;;12.83;67.16;101450.81;5094673;28;20028;-25
2022/03/28 09:27:26;;;;;;;31.98;20.63;;;;;;;13.01;67.22;101454.25;5094116;28;20020;-25
2022/03/28 09:30:03;;;;;;;30.92;22.15;;;;;;;13.16;66.48;101448.84;5090044;28;20063;-23
2022/03/28 09:32:33;;;;;;;28.85;21.13;;;;;;;13.32;65.79;101440.78;5090513;28;20035;-24
2022/03/28 09:35:21;;;;;;;31.25;21.90;;;;;;;13.49;65.49;101429.16;5089061;28;20023;-25
2022/03/28 09:37:49;;;;;;;28.88;21.00;;;;;;;13.66;65.20;101432.53;5094092;28;20382;-24
2022/03/28 09:40:28;;;;;;;27.52;20.45;;;;;;;13.85;65.56;101427.91;5090801;28;20023;-25
2022/03/28 09:42:55;;;;;;;28.10;20.25;;;;;;;13.99;65.30;101424.25;5088630;28;20024;-25
2022/03/28 09:45:24;;;;;;;30.80;21.55;;;;;;;14.13;64.49;101421.44;5092061;28;20020;-24
2022/03/28 09:48:03;;;;;;;29.63;20.08;;;;;;;14.27;63.69;101429.22;5093602;28;20028;-25
2022/03/28 09:50:29;;;;;;;24.52;19.33;;;;;;;14.44;63.90;101418.38;5090573;28;20478;-24
2022/03/28 09:52:54;;;;;;;25.05;18.42;;;;;;;14.61;63.80;101417.28;5088137;28;20481;-25
2022/03/28 09:55:20;;;;;;;24.50;17.83;;;;;;;14.75;63.63;101409.97;5073253;28;20030;-25
2022/03/28 09:57:45;;;;;;;24.45;18.35;;;;;;;14.87;62.66;101408.06;5090749;28;20016;-24
2022/03/28 10:00:17;;;;;;;25.30;18.80;;;;;;;14.98;61.85;101395.50;5092980;28;20401;-24
2022/03/28 10:02:43;;;;;;;24.00;18.73;;;;;;;15.11;61.31;101390.00;5093121;28;20028;-24
2022/03/28 10:05:08;;;;;;;27.17;20.70;;;;;;;15.23;60.75;101381.81;5089973;28;20395;-25
2022/03/28 10:07:34;;;;;;;27.55;18.05;;;;;;;15.39;61.05;101373.59;5091177;28;20020;-25
2022/03/28 10:10:00;;;;;;;23.33;18.27;;;;;;;15.55;61.28;101375.94;5090884;28;20111;-21
2022/03/28 10:12:27;;;;;;;22.27;17.77;;;;;;;15.68;61.27;101364.19;5075169;28;20409;-24
2022/03/28 10:14:57;;;;;;;24.02;17.55;;;;;;;15.82;60.63;101365.69;5088991;28;20374;-25
2022/03/28 10:17:24;;;;;;;21.92;16.10;;;;;;;15.94;60.37;101360.09;5077896;28;20020;-23
2022/03/28 10:19:50;;;;;;;20.67;15.30;;;;;;;16.09;60.62;101352.75;5089275;28;20047;-25
2022/03/28 10:22:17;;;;;;;20.85;16.52;;;;;;;16.22;60.19;101358.69;5092298;28;20389;-25
2022/03/28 10:24:44;;;;;;;22.60;15.50;;;;;;;16.33;59.87;101356.66;5076402;28;20028;-25
2022/03/28 10:27:11;;;;;;;20.08;15.27;;;;;;;16.47;59.24;101358.16;5074913;28;20050;-25
2022/03/28 10:29:38;;;;;;;24.98;16.10;;;;;;;16.58;59.46;101350.78;5092838;28;20027;-25
2022/03/28 10:32:10;;;;;;;19.73;15.18;;;;;;;16.69;59.24;101345.19;5073950;28;20024;-25
2022/03/28 10:34:52;;;;;;;19.17;15.68;;;;;;;16.83;58.79;101341.31;5097091;28;20032;-25
2022/03/28 10:37:32;;;;;;;19.92;16.17;;;;;;;16.93;58.55;101340.16;5071429;28;20020;-25
2022/03/28 10:40:16;;;;;;;19.73;16.10;;;;;;;17.04;58.24;101332.78;5095279;28;20031;-25
2022/03/28 10:43:11;;;;;;;19.60;15.27;;;;;;;17.15;58.10;101323.66;5091916;28;20389;-25
2022/03/28 10:45:49;;;;;;;19.27;15.23;;;;;;;17.24;57.20;101323.41;5092150;28;20225;-25
2022/03/28 10:48:16;;;;;;;19.73;15.75;;;;;;;17.35;57.88;101322.25;5072478;28;20064;-24
2022/03/28 10:50:48;;;;;;;16.48;14.63;;;;;;;17.46;57.45;101322.84;5091422;28;20027;-24
2022/03/28 10:53:18;;;;;;;21.45;14.98;;;;;;;17.54;57.24;101326.16;5090994;28;20025;-24
2022/03/28 10:55:47;;;;;;;21.55;15.52;;;;;;;17.65;56.79;101317.00;5090689;28;20039;-25
2022/03/28 10:58:18;;;;;;;19.08;15.55;;;;;;;17.73;56.62;101308.75;5091424;28;20381;-25
2022/03/28 11:01:13;;;;;;;17.85;14.38;;;;;;;17.83;55.97;101302.22;5073344;28;20016;-23
2022/03/28 11:03:53;;;;;;;15.82;13.80;;;;;;;17.91;55.99;101307.34;5080170;28;20504;-26
2022/03/28 11:06:21;;;;;;;18.02;13.80;;;;;;;18.01;55.20;101300.78;5091893;28;20090;-25
2022/03/28 11:09:00;;;;;;;16.05;13.55;;;;;;;18.11;55.06;101284.56;5073609;28;20016;-26
2022/03/28 11:11:30;;;;;;;16.10;12.95;;;;;;;18.18;55.13;101291.44;5090486;28;20039;-24
2022/03/28 11:14:05;;;;;;;15.07;12.52;;;;;;;18.24;54.80;101283.22;5076736;28;20564;-24
2022/03/28 11:16:54;;;;;;;17.52;13.70;;;;;;;18.33;53.74;101276.72;5092574;28;20063;-25
2022/03/28 11:19:29;;;;;;;14.77;11.85;;;;;;;18.40;54.00;101264.03;5090747;28;20393;-25
2022/03/28 11:21:59;;;;;;;15.32;13.07;;;;;;;18.47;54.09;101262.91;5090663;28;20032;-24
2022/03/28 11:24:44;;;;;;;15.18;11.40;;;;;;;18.56;53.97;101259.97;5093161;28;20023;-25
2022/03/28 11:27:10;;;;;;;14.45;11.93;;;;;;;18.63;53.91;101244.59;5088157;28;20027;-24
2022/03/28 11:29:35;;;;;;;13.02;11.63;;;;;;;18.71;53.12;101244.34;5094076;28;20079;-23
2022/03/28 11:32:08;;;;;;;15.02;10.80;;;;;;;18.77;52.80;101238.78;5091743;28;20362;-25
2022/03/28 11:34:33;;;;;;;13.75;10.82;;;;;;;18.82;53.26;101230.59;5092373;28;20016;-25
2022/03/28 11:37:01;;;;;;;13.10;10.23;;;;;;;18.89;52.88;101226.78;5093648;28;20085;-23
2022/03/28 11:39:27;;;;;;;11.60;9.10;;;;;;;18.92;52.84;101218.66;5088527;28;20024;-25
2022/03/28 11:41:54;;;;;;;12.52;9.35;;;;;;;19.01;53.02;101209.47;5091637;28;20054;-24
2022/03/28 11:44:19;;;;;;;11.65;9.18;;;;;;;19.08;52.92;101218.16;5098562;28;20066;-25
2022/03/28 11:46:53;;;;;;;13.45;9.52;;;;;;;19.15;52.51;101208.09;5077666;28;20024;-24
2022/03/28 11:49:19;;;;;;;13.35;8.45;;;;;;;19.22;52.22;101205.16;5091974;28;20025;-24
2022/03/28 11:51:45;;;;;;;14.18;8.98;;;;;;;19.28;51.87;101198.69;5071940;28;20016;-25
2022/03/28 11:54:12;;;;;;;11.43;8.73;;;;;;;19.33;51.88;101191.38;5092940;28;20012;-23
2022/03/28 11:59:25;;;;;;;11.82;9.10;;;;;;;19.46;51.81;101166.81;5086257;28;20031;-25
2022/03/28 12:01:57;;;;;;;12.40;9.25;;;;;;;19.55;51.50;101169.16;5096385;28;20600;-26
2022/03/28 12:04:23;;;;;;;11.40;9.00;;;;;;;19.57;51.46;101159.25;5088939;28;20028;-25
2022/03/28 12:06:51;;;;;;;13.15;10.63;;;;;;;19.66;51.76;101162.50;5096275;28;20039;-25
2022/03/28 12:09:17;;;;;;;13.85;10.23;;;;;;;19.74;51.85;101161.25;5097203;28;20050;-25
2022/03/28 12:11:48;;;;;;;11.70;9.77;;;;;;;19.80;51.27;101149.44;5088231;28;20027;-25
2022/03/28 12:14:15;;;;;;;12.55;9.93;;;;;;;19.91;51.69;101138.28;5085203;28;20481;-24
2022/03/28 12:16:51;;;;;;;12.23;9.95;;;;;;;19.98;51.41;101141.59;5091791;28;20032;-25
2022/03/28 12:19:25;;;;;;;12.85;10.98;;;;;;;20.06;51.46;101133.25;5089675;28;20103;-25
2022/03/28 12:21:52;;;;;;;14.25;10.65;;;;;;;20.08;51.22;101126.91;5088798;28;20099;-24
2022/03/28 12:24:18;;;;;;;14.30;11.52;;;;;;;20.17;50.76;101111.41;5091770;28;20019;-25
2022/03/28 12:26:45;;;;;;;13.15;11.02;;;;;;;20.29;50.52;101115.34;5089082;28;20020;-25
2022/03/28 12:29:11;;;;;;;15.18;11.60;;;;;;;20.36;50.59;101112.34;5091145;28;20470;-24
2022/03/28 12:31:40;;;;;;;13.82;10.52;;;;;;;20.49;50.88;101107.31;5091113;28;20028;-25
2022/03/28 12:34:06;;;;;;;12.95;11.30;;;;;;;20.57;51.20;101112.34;5088565;28;20465;-25
2022/03/28 12:36:34;;;;;;;13.88;11.18;;;;;;;20.63;50.92;101100.47;5090320;28;20031;-23
2022/03/28 12:39:01;;;;;;;15.15;11.73;;;;;;;20.71;50.52;101097.47;5071118;28;20023;-24
2022/03/28 12:41:27;;;;;;;13.23;11.50;;;;;;;20.74;50.85;101091.97;5093524;28;20034;-25
2022/03/28 12:43:53;;;;;;;11.57;9.82;;;;;;;20.81;50.79;101085.34;5074405;28;20050;-22
2022/03/28 12:46:19;;;;;;;12.57;10.38;;;;;;;20.88;50.47;101077.94;5093472;28;20034;-25
2022/03/28 12:48:53;;;;;;;11.75;9.88;;;;;;;20.98;50.77;101073.03;5070864;28;20050;-24
2022/03/28 12:51:30;;;;;;;11.43;9.95;;;;;;;21.09;49.91;101072.53;5090036;28;20566;-25
2022/03/28 12:54:06;;;;;;;11.20;9.75;;;;;;;21.17;49.79;101072.16;5077321;28;20529;-25
2022/03/28 12:56:48;;;;;;;13.32;10.90;;;;;;;21.23;49.64;101063.81;5078043;28;20036;-25
2022/03/28 12:59:27;;;;;;;15.82;12.00;;;;;;;21.25;49.04;101051.22;5100577;28;20496;-25
2022/03/28 13:02:06;;;;;;;16.38;13.07;;;;;;;21.29;49.21;101047.44;5093961;28;20027;-25
2022/03/28 13:04:44;;;;;;;14.13;11.73;;;;;;;21.32;48.69;101047.28;5090666;28;20051;-25
2022/03/28 13:07:17;;;;;;;14.10;11.13;;;;;;;21.34;48.79;101048.06;5094748;28;20044;-24
2022/03/28 13:09:59;;;;;;;14.40;12.00;;;;;;;21.38;48.45;101046.13;5090380;28;20490;-25
2022/03/28 13:12:41;;;;;;;16.65;12.32;;;;;;;21.44;48.62;101044.94;5096480;28;20028;-22
2022/03/28 13:15:18;;;;;;;14.45;12.48;;;;;;;21.43;48.74;101040.50;5092628;28;20020;-24
2022/03/28 13:17:44;;;;;;;14.02;10.00;;;;;;;21.44;49.01;101029.69;5071606;28;20031;-25
2022/03/28 13:20:20;;;;;;;16.75;13.43;;;;;;;21.52;49.01;101040.06;5077355;28;20031;-25
2022/03/28 13:22:50;;;;;;;16.42;12.73;;;;;;;21.54;47.93;101032.78;5093622;28;20028;-24
2022/03/28 13:25:20;;;;;;;16.83;13.45;;;;;;;21.50;48.33;101036.56;5092371;28;20062;-25
2022/03/28 13:28:08;;;;;;;16.73;12.93;;;;;;;21.55;48.66;101034.56;5090594;28;20047;-25
2022/03/28 13:30:35;;;;;;;16.05;13.65;;;;;;;21.61;48.48;101023.50;5094974;28;20035;-23
2022/03/28 13:33:01;;;;;;;14.10;11.95;;;;;;;21.62;48.76;101025.25;5091939;28;20039;-24
2022/03/28 13:35:27;;;;;;;19.65;14.55;;;;;;;21.63;48.74;101016.25;5092489;28;20028;-24
2022/03/28 13:38:04;;;;;;;17.25;13.23;;;;;;;21.66;47.80;101016.09;5091843;28;20072;-25
2022/03/28 13:40:30;;;;;;;18.88;14.65;;;;;;;21.70;48.43;101015.94;5090179;28;20466;-24
2022/03/28 13:42:57;;;;;;;14.80;12.48;;;;;;;21.73;48.08;101011.28;5091841;28;20432;-25
2022/03/28 13:45:23;;;;;;;17.90;13.65;;;;;;;21.75;48.54;100997.81;5093347;28;20062;-25
2022/03/28 13:47:50;;;;;;;16.60;13.68;;;;;;;21.76;48.69;100997.75;5090028;28;20015;-23
2022/03/28 13:50:16;;;;;;;16.05;12.65;;;;;;;21.79;48.88;100996.72;5089725;28;20028;-23
2022/03/28 13:52:43;;;;;;;15.82;12.45;;;;;;;21.79;49.24;100988.66;5097949;28;20378;-23
2022/03/28 13:55:10;;;;;;;16.63;12.85;;;;;;;21.83;48.36;100989.34;5093119;28;20020;-25
2022/03/28 13:57:35;;;;;;;16.98;13.48;;;;;;;21.84;48.59;100980.38;5095136;28;20028;-25
2022/03/28 14:00:01;;;;;;;16.45;12.48;;;;;;;21.85;48.31;100976.72;5097366;28;20038;-25
2022/03/28 14:02:27;;;;;;;13.60;10.80;;;;;;;21.84;47.97;100978.53;5097002;28;20401;-24
2022/03/28 14:04:52;;;;;;;16.88;12.13;;;;;;;21.80;48.35;100968.91;5079602;28;20507;-23
2022/03/28 14:07:18;;;;;;;14.65;11.90;;;;;;;21.78;48.70;100976.19;5094579;28;20024;-25
2022/03/28 14:09:43;;;;;;;14.23;11.65;;;;;;;21.76;48.28;100967.34;5095244;28;20039;-25
2022/03/28 14:12:09;;;;;;;15.45;12.80;;;;;;;21.73;48.64;100962.97;5090112;28;20033;-25
2022/03/28 14:14:35;;;;;;;16.88;12.90;;;;;;;21.70;47.90;100951.53;5094384;28;20032;-24
2022/03/28 14:17:02;;;;;;;15.70;12.57;;;;;;;21.67;48.05;100948.03;5088553;28;20012;-24
2022/03/28 14:19:28;;;;;;;13.68;11.80;;;;;;;21.72;47.30;100955.00;5095408;28;20133;-25
2022/03/28 14:21:55;;;;;;;14.55;11.55;;;;;;;21.67;47.70;100949.84;5091397;28;20074;-25
2022/03/28 14:24:21;;;;;;;17.02;12.23;;;;;;;21.63;48.92;100951.84;5096737;28;20023;-25
2022/03/28 14:26:46;;;;;;;14.38;10.73;;;;;;;21.64;47.90;100948.19;5080120;28;20114;-25
2022/03/28 14:29:12;;;;;;;14.40;10.80;;;;;;;21.66;48.27;100938.28;5091931;28;20477;-25
2022/03/28 14:31:38;;;;;;;15.48;12.00;;;;;;;21.65;47.88;100941.88;5084521;28;20401;-25
2022/03/28 14:34:03;;;;;;;19.42;12.63;;;;;;;21.64;48.29;100936.63;5089228;28;20035;-25
2022/03/28 14:36:30;;;;;;;15.88;11.80;;;;;;;21.61;48.61;100926.88;5089906;28;20114;-25
2022/03/28 14:38:55;;;;;;;14.70;11.18;;;;;;;21.65;48.74;100928.47;5090971;28;20018;-25
2022/03/28 14:41:21;;;;;;;13.50;10.43;;;;;;;21.69;49.36;100926.50;5088199;28;20024;-21
2022/03/28 14:43:47;;;;;;;13.98;11.75;;;;;;;21.71;48.52;100921.91;5089219;28;20035;-25
2022/03/28 14:48:56;;;;;;;11.80;9.90;;;;;;;21.81;48.62;100906.25;5089558;28;20459;-23
2022/03/28 14:51:22;;;;;;;11.07;9.65;;;;;;;21.87;48.78;100905.91;5089900;28;20146;-24
2022/03/28 14:53:48;;;;;;;15.00;11.48;;;;;;;21.92;48.97;100903.84;5089682;28;20445;-25
2022/03/28 14:56:13;;;;;;;15.48;10.63;;;;;;;21.97;48.73;100905.41;5075564;28;20084;-25
2022/03/28 14:58:39;;;;;;;13.98;10.85;;;;;;;22.00;48.83;100902.53;5072937;28;20395;-24
2022/03/28 15:01:04;;;;;;;15.65;10.60;;;;;;;22.04;48.13;100891.56;5083893;28;20142;-25
2022/03/28 15:03:30;;;;;;;14.18;11.65;;;;;;;22.07;47.84;100895.91;5090104;28;20469;-25
2022/03/28 15:05:55;;;;;;;14.50;11.07;;;;;;;22.08;48.24;100897.66;5089589;28;20015;-23
2022/03/28 15:08:21;;;;;;;16.13;10.23;;;;;;;22.11;48.11;100896.63;5089290;28;20127;-25
2022/03/28 15:10:47;;;;;;;14.68;11.40;;;;;;;22.16;48.11;100899.91;5092054;28;20024;-24
2022/03/28 15:13:16;;;;;;;14.10;10.90;;;;;;;22.21;46.73;100897.81;5088654;28;20452;-24
2022/03/28 15:15:44;;;;;;;13.80;9.95;;;;;;;22.18;47.56;100896.19;5086200;28;20028;-23
2022/03/28 15:18:11;;;;;;;13.90;11.20;;;;;;;22.19;47.32;100894.38;5071324;28;20020;-23
2022/03/28 15:20:37;;;;;;;14.23;10.65;;;;;;;22.23;47.46;100884.31;5095799;28;20090;-25
2022/03/28 15:23:03;;;;;;;14.82;10.60;;;;;;;22.25;47.70;100890.47;5094544;28;20545;-24
2022/03/28 15:25:29;;;;;;;17.23;11.40;;;;;;;22.26;47.06;100881.47;5093681;28;20020;-25
2022/03/28 15:27:55;;;;;;;13.35;10.60;;;;;;;22.23;48.10;100874.44;5068586;28;20381;-25
2022/03/28 15:30:20;;;;;;;16.42;12.10;;;;;;;22.19;47.84;100872.88;5092489;28;20193;-23
2022/03/28 15:32:45;;;;;;;13.65;10.90;;;;;;;22.18;47.76;100872.00;5090327;28;20433;-23
2022/03/28 15:35:12;;;;;;;13.23;9.70;;;;;;;22.17;47.85;100867.59;5091614;28;20035;-23
2022/03/28 15:37:38;;;;;;;14.75;10.80;;;;;;;22.14;47.56;100858.84;5088859;28;20123;-24
2022/03/28 15:40:04;;;;;;;14.45;11.07;;;;;;;22.14;47.35;100862.38;5092071;28;20501;-24
2022/03/28 15:42:32;;;;;;;12.25;10.00;;;;;;;22.10;47.34;100854.56;5087780;28;20110;-25
2022/03/28 15:44:58;;;;;;;14.43;10.32;;;;;;;22.05;48.07;100855.69;5094499;28;20030;-25
2022/03/28 15:47:24;;;;;;;14.32;10.02;;;;;;;22.04;47.67;100845.06;5072215;28;20036;-25
2022/03/28 15:49:49;;;;;;;15.52;10.50;;;;;;;22.00;47.71;100852.41;5087704;28;20036;-25
2022/03/28 15:52:16;;;;;;;11.45;9.32;;;;;;;21.97;47.50;100840.97;5089767;28;20040;-25
2022/03/28 15:54:43;;;;;;;15.00;9.90;;;;;;;21.95;47.40;100845.56;5095929;28;20117;-25
2022/03/28 15:57:10;;;;;;;12.68;9.88;;;;;;;21.94;47.47;100841.16;5092041;28;20028;-25
2022/03/28 15:59:35;;;;;;;13.10;9.98;;;;;;;21.90;47.12;100846.69;5091415;28;20026;-25